sensor_id;sensor_type;location;lat;lon;timestamp;P1;durP1;ratioP1;P2;durP2;ratioP2
7169;SDS011;3626;42.656;23.312;2023-06-10T00:00:06;15.65;;;10.50;;
7169;SDS011;3626;42.656;23.312;2023-06-10T00:00:12;15.10;;;10.22;;
7169;SDS011;3626;42.656;23.312;2023-06-10T00:00:20;14.78;;;10.16;;
7169;SDS011;3626;42.656;23.312;2023-06-10T00:00:27;14.75;;;10.10;;
7169;SDS011;3626;42.656;23.312;2023-06-10T00:00:35;14.92;;;10.08;;
7169;SDS011;3626;42.656;23.312;2023-06-10T00:00:41;14.70;;;9.80;;
7169;SDS011;3626;42.656;23.312;2023-06-10T00:00:47;14.20;;;9.70;;
7169;SDS011;3626;42.656;23.312;2023-06-10T00:00:53;14.20;;;9.57;;
7169;SDS011;3626;42.656;23.312;2023-06-10T00:00:59;14.38;;;9.23;;
7169;SDS011;3626;42.656;23.312;2023-06-10T00:01:04;14.65;;;8.98;;
7169;SDS011;3626;42.656;23.312;2023-06-10T00:01:11;15.80;;;9.02;;
7169;SDS011;3626;42.656;23.312;2023-06-10T00:01:16;16.00;;;9.10;;
7169;SDS011;3626;42.656;23.312;2023-06-10T00:01:23;16.58;;;9.20;;
7169;SDS011;3626;42.656;23.312;2023-06-10T00:01:29;16.83;;;9.27;;
7169;SDS011;3626;42.656;23.312;2023-06-10T00:01:35;16.73;;;9.30;;
7169;SDS011;3626;42.656;23.312;2023-06-10T00:01:41;16.80;;;9.40;;
7169;SDS011;3626;42.656;23.312;2023-06-10T00:01:48;17.17;;;9.50;;
7169;SDS011;3626;42.656;23.312;2023-06-10T00:01:54;18.87;;;9.67;;
7169;SDS011;3626;42.656;23.312;2023-06-10T00:02:05;18.49;;;9.86;;
7169;SDS011;3626;42.656;23.312;2023-06-10T00:02:12;17.58;;;10.03;;
7169;SDS011;3626;42.656;23.312;2023-06-10T00:02:18;17.58;;;10.02;;
7169;SDS011;3626;42.656;23.312;2023-06-10T00:02:25;16.93;;;9.90;;
7169;SDS011;3626;42.656;23.312;2023-06-10T00:02:31;17.04;;;9.98;;
7169;SDS011;3626;42.656;23.312;2023-06-10T00:02:37;17.08;;;10.02;;
7169;SDS011;3626;42.656;23.312;2023-06-10T00:02:43;17.35;;;10.10;;
7169;SDS011;3626;42.656;23.312;2023-06-10T00:02:49;17.52;;;10.20;;
7169;SDS011;3626;42.656;23.312;2023-06-10T00:02:55;16.27;;;10.27;;
7169;SDS011;3626;42.656;23.312;2023-06-10T00:03:00;16.27;;;10.32;;
7169;SDS011;3626;42.656;23.312;2023-06-10T00:03:07;16.67;;;10.40;;
7169;SDS011;3626;42.656;23.312;2023-06-10T00:03:15;16.74;;;10.52;;
7169;SDS011;3626;42.656;23.312;2023-06-10T00:03:21;17.08;;;10.70;;
7169;SDS011;3626;42.656;23.312;2023-06-10T00:03:29;16.97;;;10.61;;
7169;SDS011;3626;42.656;23.312;2023-06-10T00:03:35;16.30;;;10.30;;
7169;SDS011;3626;42.656;23.312;2023-06-10T00:03:41;16.40;;;10.32;;
7169;SDS011;3626;42.656;23.312;2023-06-10T00:03:49;15.90;;;10.37;;
7169;SDS011;3626;42.656;23.312;2023-06-10T00:03:55;16.73;;;10.27;;
7169;SDS011;3626;42.656;23.312;2023-06-10T00:04:01;16.73;;;10.20;;
7169;SDS011;3626;42.656;23.312;2023-06-10T00:04:07;16.38;;;10.13;;
7169;SDS011;3626;42.656;23.312;2023-06-10T00:04:13;16.17;;;10.15;;
7169;SDS011;3626;42.656;23.312;2023-06-10T00:04:18;15.93;;;10.20;;
7169;SDS011;3626;42.656;23.312;2023-06-10T00:04:24;15.77;;;10.13;;
7169;SDS011;3626;42.656;23.312;2023-06-10T00:04:30;16.50;;;10.33;;
7169;SDS011;3626;42.656;23.312;2023-06-10T00:04:36;16.83;;;10.50;;
7169;SDS011;3626;42.656;23.312;2023-06-10T00:04:42;16.87;;;10.37;;
7169;SDS011;3626;42.656;23.312;2023-06-10T00:04:48;16.63;;;10.18;;
7169;SDS011;3626;42.656;23.312;2023-06-10T00:04:54;15.93;;;10.10;;
7169;SDS011;3626;42.656;23.312;2023-06-10T00:05:00;16.08;;;10.23;;
7169;SDS011;3626;42.656;23.312;2023-06-10T00:05:06;16.13;;;10.25;;
7169;SDS011;3626;42.656;23.312;2023-06-10T00:05:13;16.97;;;10.20;;
7169;SDS011;3626;42.656;23.312;2023-06-10T00:05:21;17.60;;;10.20;;
7169;SDS011;3626;42.656;23.312;2023-06-10T00:05:30;17.41;;;10.10;;
7169;SDS011;3626;42.656;23.312;2023-06-10T00:05:36;19.15;;;10.13;;
7169;SDS011;3626;42.656;23.312;2023-06-10T00:05:43;18.84;;;9.92;;
7169;SDS011;3626;42.656;23.312;2023-06-10T00:05:49;18.97;;;9.90;;
7169;SDS011;3626;42.656;23.312;2023-06-10T00:05:55;19.17;;;10.20;;
7169;SDS011;3626;42.656;23.312;2023-06-10T00:06:01;18.97;;;10.20;;
7169;SDS011;3626;42.656;23.312;2023-06-10T00:06:07;19.45;;;10.20;;
7169;SDS011;3626;42.656;23.312;2023-06-10T00:06:13;20.08;;;10.13;;
7169;SDS011;3626;42.656;23.312;2023-06-10T00:06:19;19.73;;;9.98;;
7169;SDS011;3626;42.656;23.312;2023-06-10T00:06:26;19.78;;;10.08;;
7169;SDS011;3626;42.656;23.312;2023-06-10T00:06:33;18.53;;;10.10;;
7169;SDS011;3626;42.656;23.312;2023-06-10T00:06:40;18.14;;;10.26;;
7169;SDS011;3626;42.656;23.312;2023-06-10T00:06:46;18.88;;;10.57;;
7169;SDS011;3626;42.656;23.312;2023-06-10T00:06:53;18.50;;;10.60;;
7169;SDS011;3626;42.656;23.312;2023-06-10T00:07:00;20.93;;;10.77;;
7169;SDS011;3626;42.656;23.312;2023-06-10T00:07:06;21.40;;;10.95;;
7169;SDS011;3626;42.656;23.312;2023-06-10T00:07:13;19.60;;;11.00;;
7169;SDS011;3626;42.656;23.312;2023-06-10T00:07:19;19.58;;;11.07;;
7169;SDS011;3626;42.656;23.312;2023-06-10T00:07:25;19.75;;;11.15;;
7169;SDS011;3626;42.656;23.312;2023-06-10T00:07:31;19.45;;;11.05;;
7169;SDS011;3626;42.656;23.312;2023-06-10T00:07:36;19.10;;;10.95;;
7169;SDS011;3626;42.656;23.312;2023-06-10T00:07:43;18.67;;;10.80;;
7169;SDS011;3626;42.656;23.312;2023-06-10T00:07:51;18.63;;;10.67;;
7169;SDS011;3626;42.656;23.312;2023-06-10T00:08:00;17.30;;;10.49;;
7169;SDS011;3626;42.656;23.312;2023-06-10T00:08:12;15.81;;;10.09;;
7169;SDS011;3626;42.656;23.312;2023-06-10T00:08:20;15.49;;;10.10;;
7169;SDS011;3626;42.656;23.312;2023-06-10T00:08:27;15.87;;;10.20;;
7169;SDS011;3626;42.656;23.312;2023-06-10T00:08:34;15.80;;;10.20;;
7169;SDS011;3626;42.656;23.312;2023-06-10T00:08:39;15.73;;;10.30;;
7169;SDS011;3626;42.656;23.312;2023-06-10T00:08:45;15.88;;;10.45;;
7169;SDS011;3626;42.656;23.312;2023-06-10T00:08:52;16.63;;;10.65;;
7169;SDS011;3626;42.656;23.312;2023-06-10T00:08:58;17.00;;;10.93;;
7169;SDS011;3626;42.656;23.312;2023-06-10T00:09:06;16.63;;;11.00;;
7169;SDS011;3626;42.656;23.312;2023-06-10T00:09:15;16.76;;;10.93;;
7169;SDS011;3626;42.656;23.312;2023-06-10T00:09:21;16.83;;;11.10;;
7169;SDS011;3626;42.656;23.312;2023-06-10T00:09:27;16.70;;;11.05;;
7169;SDS011;3626;42.656;23.312;2023-06-10T00:09:34;16.80;;;11.00;;
7169;SDS011;3626;42.656;23.312;2023-06-10T00:09:41;17.14;;;11.00;;
7169;SDS011;3626;42.656;23.312;2023-06-10T00:09:48;17.13;;;11.10;;
7169;SDS011;3626;42.656;23.312;2023-06-10T00:09:54;16.98;;;10.90;;
7169;SDS011;3626;42.656;23.312;2023-06-10T00:10:00;18.25;;;10.77;;
7169;SDS011;3626;42.656;23.312;2023-06-10T00:10:09;18.59;;;10.74;;
7169;SDS011;3626;42.656;23.312;2023-06-10T00:10:15;18.67;;;10.57;;
7169;SDS011;3626;42.656;23.312;2023-06-10T00:10:21;18.45;;;10.38;;
7169;SDS011;3626;42.656;23.312;2023-06-10T00:10:27;19.08;;;10.55;;
7169;SDS011;3626;42.656;23.312;2023-06-10T00:10:33;19.55;;;10.75;;
7169;SDS011;3626;42.656;23.312;2023-06-10T00:10:40;20.12;;;10.96;;
7169;SDS011;3626;42.656;23.312;2023-06-10T00:10:45;20.30;;;10.85;;
7169;SDS011;3626;42.656;23.312;2023-06-10T00:10:51;20.03;;;10.93;;
7169;SDS011;3626;42.656;23.312;2023-06-10T00:10:57;19.17;;;11.10;;
7169;SDS011;3626;42.656;23.312;2023-06-10T00:11:03;17.98;;;11.20;;
7169;SDS011;3626;42.656;23.312;2023-06-10T00:11:09;18.08;;;11.35;;
7169;SDS011;3626;42.656;23.312;2023-06-10T00:11:16;18.90;;;11.78;;
7169;SDS011;3626;42.656;23.312;2023-06-10T00:11:22;19.52;;;12.00;;
7169;SDS011;3626;42.656;23.312;2023-06-10T00:11:28;19.15;;;11.98;;
7169;SDS011;3626;42.656;23.312;2023-06-10T00:11:33;19.53;;;11.90;;
7169;SDS011;3626;42.656;23.312;2023-06-10T00:11:39;19.50;;;11.90;;
7169;SDS011;3626;42.656;23.312;2023-06-10T00:11:45;20.02;;;12.07;;
7169;SDS011;3626;42.656;23.312;2023-06-10T00:11:52;20.30;;;11.90;;
7169;SDS011;3626;42.656;23.312;2023-06-10T00:11:58;21.60;;;11.93;;
7169;SDS011;3626;42.656;23.312;2023-06-10T00:12:06;22.04;;;12.02;;
7169;SDS011;3626;42.656;23.312;2023-06-10T00:12:12;21.60;;;11.80;;
7169;SDS011;3626;42.656;23.312;2023-06-10T00:12:19;21.14;;;11.82;;
7169;SDS011;3626;42.656;23.312;2023-06-10T00:12:25;21.70;;;11.93;;
7169;SDS011;3626;42.656;23.312;2023-06-10T00:12:34;21.63;;;11.80;;
7169;SDS011;3626;42.656;23.312;2023-06-10T00:12:42;21.32;;;11.80;;
7169;SDS011;3626;42.656;23.312;2023-06-10T00:12:49;21.00;;;12.10;;
7169;SDS011;3626;42.656;23.312;2023-06-10T00:12:54;20.40;;;11.87;;
7169;SDS011;3626;42.656;23.312;2023-06-10T00:13:01;19.07;;;11.77;;
7169;SDS011;3626;42.656;23.312;2023-06-10T00:13:07;19.80;;;11.90;;
7169;SDS011;3626;42.656;23.312;2023-06-10T00:13:14;21.73;;;11.90;;
7169;SDS011;3626;42.656;23.312;2023-06-10T00:13:19;21.63;;;11.90;;
7169;SDS011;3626;42.656;23.312;2023-06-10T00:13:25;22.13;;;11.73;;
7169;SDS011;3626;42.656;23.312;2023-06-10T00:13:31;22.20;;;11.70;;
7169;SDS011;3626;42.656;23.312;2023-06-10T00:13:37;21.77;;;11.70;;
7169;SDS011;3626;42.656;23.312;2023-06-10T00:13:43;22.08;;;11.50;;
7169;SDS011;3626;42.656;23.312;2023-06-10T00:13:49;21.58;;;11.30;;
7169;SDS011;3626;42.656;23.312;2023-06-10T00:13:55;22.05;;;11.52;;
7169;SDS011;3626;42.656;23.312;2023-06-10T00:14:00;22.07;;;11.43;;
7169;SDS011;3626;42.656;23.312;2023-06-10T00:14:07;22.13;;;11.35;;
7169;SDS011;3626;42.656;23.312;2023-06-10T00:14:13;20.86;;;11.34;;
7169;SDS011;3626;42.656;23.312;2023-06-10T00:14:19;20.60;;;11.30;;
7169;SDS011;3626;42.656;23.312;2023-06-10T00:14:25;20.48;;;11.23;;
7169;SDS011;3626;42.656;23.312;2023-06-10T00:14:31;20.77;;;11.55;;
7169;SDS011;3626;42.656;23.312;2023-06-10T00:14:38;22.13;;;11.68;;
7169;SDS011;3626;42.656;23.312;2023-06-10T00:14:45;21.60;;;11.43;;
7169;SDS011;3626;42.656;23.312;2023-06-10T00:14:50;21.80;;;11.40;;
7169;SDS011;3626;42.656;23.312;2023-06-10T00:14:58;21.58;;;11.23;;
7169;SDS011;3626;42.656;23.312;2023-06-10T00:15:05;21.75;;;11.27;;
7169;SDS011;3626;42.656;23.312;2023-06-10T00:15:11;21.10;;;11.12;;
7169;SDS011;3626;42.656;23.312;2023-06-10T00:15:17;20.40;;;11.05;;
7169;SDS011;3626;42.656;23.312;2023-06-10T00:15:23;20.25;;;11.07;;
7169;SDS011;3626;42.656;23.312;2023-06-10T00:15:29;19.95;;;10.90;;
7169;SDS011;3626;42.656;23.312;2023-06-10T00:15:35;19.10;;;10.80;;
7169;SDS011;3626;42.656;23.312;2023-06-10T00:15:41;17.63;;;10.52;;
7169;SDS011;3626;42.656;23.312;2023-06-10T00:15:46;17.93;;;10.77;;
7169;SDS011;3626;42.656;23.312;2023-06-10T00:15:52;18.15;;;10.70;;
7169;SDS011;3626;42.656;23.312;2023-06-10T00:15:58;19.50;;;10.90;;
7169;SDS011;3626;42.656;23.312;2023-06-10T00:16:04;19.30;;;10.85;;
7169;SDS011;3626;42.656;23.312;2023-06-10T00:16:11;19.96;;;11.00;;
7169;SDS011;3626;42.656;23.312;2023-06-10T00:16:17;20.20;;;11.05;;
7169;SDS011;3626;42.656;23.312;2023-06-10T00:16:23;19.83;;;10.80;;
7169;SDS011;3626;42.656;23.312;2023-06-10T00:16:30;19.20;;;10.80;;
7169;SDS011;3626;42.656;23.312;2023-06-10T00:16:36;19.23;;;10.90;;
7169;SDS011;3626;42.656;23.312;2023-06-10T00:16:41;20.30;;;11.25;;
7169;SDS011;3626;42.656;23.312;2023-06-10T00:16:50;20.76;;;11.50;;
7169;SDS011;3626;42.656;23.312;2023-06-10T00:16:57;19.18;;;11.58;;
7169;SDS011;3626;42.656;23.312;2023-06-10T00:17:03;19.38;;;11.70;;
7169;SDS011;3626;42.656;23.312;2023-06-10T00:17:09;19.45;;;11.80;;
7169;SDS011;3626;42.656;23.312;2023-06-10T00:17:16;20.17;;;12.03;;
7169;SDS011;3626;42.656;23.312;2023-06-10T00:17:21;20.10;;;12.32;;
7169;SDS011;3626;42.656;23.312;2023-06-10T00:17:28;19.66;;;12.20;;
7169;SDS011;3626;42.656;23.312;2023-06-10T00:17:34;19.90;;;12.07;;
7169;SDS011;3626;42.656;23.312;2023-06-10T00:17:43;18.84;;;11.49;;
7169;SDS011;3626;42.656;23.312;2023-06-10T00:17:51;18.00;;;11.05;;
7169;SDS011;3626;42.656;23.312;2023-06-10T00:18:00;17.56;;;10.71;;
7169;SDS011;3626;42.656;23.312;2023-06-10T00:18:06;16.67;;;10.60;;
7169;SDS011;3626;42.656;23.312;2023-06-10T00:18:16;15.27;;;10.33;;
7169;SDS011;3626;42.656;23.312;2023-06-10T00:18:22;15.10;;;10.32;;
7169;SDS011;3626;42.656;23.312;2023-06-10T00:18:28;15.00;;;10.40;;
7169;SDS011;3626;42.656;23.312;2023-06-10T00:18:36;14.45;;;10.40;;
7169;SDS011;3626;42.656;23.312;2023-06-10T00:18:43;14.80;;;10.60;;
7169;SDS011;3626;42.656;23.312;2023-06-10T00:18:49;15.82;;;10.65;;
7169;SDS011;3626;42.656;23.312;2023-06-10T00:18:56;16.87;;;10.90;;
7169;SDS011;3626;42.656;23.312;2023-06-10T00:19:05;16.57;;;10.60;;
7169;SDS011;3626;42.656;23.312;2023-06-10T00:19:13;15.80;;;10.20;;
7169;SDS011;3626;42.656;23.312;2023-06-10T00:19:23;15.45;;;9.95;;
7169;SDS011;3626;42.656;23.312;2023-06-10T00:19:30;15.36;;;9.84;;
7169;SDS011;3626;42.656;23.312;2023-06-10T00:19:36;16.08;;;9.70;;
7169;SDS011;3626;42.656;23.312;2023-06-10T00:19:46;16.00;;;9.77;;
7169;SDS011;3626;42.656;23.312;2023-06-10T00:19:52;15.18;;;9.45;;
7169;SDS011;3626;42.656;23.312;2023-06-10T00:19:58;15.02;;;9.40;;
7169;SDS011;3626;42.656;23.312;2023-06-10T00:20:04;15.53;;;9.67;;
7169;SDS011;3626;42.656;23.312;2023-06-10T00:20:14;16.83;;;9.80;;
7169;SDS011;3626;42.656;23.312;2023-06-10T00:20:19;17.20;;;9.70;;
7169;SDS011;3626;42.656;23.312;2023-06-10T00:20:28;17.07;;;9.61;;
7169;SDS011;3626;42.656;23.312;2023-06-10T00:20:35;16.74;;;9.66;;
7169;SDS011;3626;42.656;23.312;2023-06-10T00:20:43;15.78;;;9.52;;
7169;SDS011;3626;42.656;23.312;2023-06-10T00:20:48;15.07;;;9.50;;
7169;SDS011;3626;42.656;23.312;2023-06-10T00:20:58;14.93;;;9.66;;
7169;SDS011;3626;42.656;23.312;2023-06-10T00:21:10;15.02;;;9.73;;
7169;SDS011;3626;42.656;23.312;2023-06-10T00:21:18;15.01;;;9.86;;
7169;SDS011;3626;42.656;23.312;2023-06-10T00:21:24;16.45;;;9.93;;
7169;SDS011;3626;42.656;23.312;2023-06-10T00:21:30;17.60;;;10.10;;
7169;SDS011;3626;42.656;23.312;2023-06-10T00:21:42;17.94;;;10.07;;
7169;SDS011;3626;42.656;23.312;2023-06-10T00:21:49;18.34;;;10.06;;
7169;SDS011;3626;42.656;23.312;2023-06-10T00:21:56;18.50;;;10.03;;
7169;SDS011;3626;42.656;23.312;2023-06-10T00:22:02;17.13;;;9.80;;
7169;SDS011;3626;42.656;23.312;2023-06-10T00:22:09;17.04;;;9.66;;
7169;SDS011;3626;42.656;23.312;2023-06-10T00:22:15;16.65;;;9.57;;
7169;SDS011;3626;42.656;23.312;2023-06-10T00:22:21;15.13;;;9.68;;
7169;SDS011;3626;42.656;23.312;2023-06-10T00:22:27;14.27;;;9.70;;
7169;SDS011;3626;42.656;23.312;2023-06-10T00:22:34;14.16;;;9.74;;
7169;SDS011;3626;42.656;23.312;2023-06-10T00:22:40;14.05;;;9.75;;
7169;SDS011;3626;42.656;23.312;2023-06-10T00:22:50;13.93;;;9.81;;
7169;SDS011;3626;42.656;23.312;2023-06-10T00:22:57;13.75;;;9.90;;
7169;SDS011;3626;42.656;23.312;2023-06-10T00:23:04;14.37;;;9.90;;
7169;SDS011;3626;42.656;23.312;2023-06-10T00:23:13;15.89;;;9.93;;
7169;SDS011;3626;42.656;23.312;2023-06-10T00:23:19;15.80;;;9.87;;
7169;SDS011;3626;42.656;23.312;2023-06-10T00:23:25;15.95;;;9.70;;
7169;SDS011;3626;42.656;23.312;2023-06-10T00:23:31;15.93;;;9.65;;
7169;SDS011;3626;42.656;23.312;2023-06-10T00:23:43;15.43;;;9.54;;
7169;SDS011;3626;42.656;23.312;2023-06-10T00:23:49;15.50;;;9.53;;
7169;SDS011;3626;42.656;23.312;2023-06-10T00:23:55;15.80;;;9.53;;
7169;SDS011;3626;42.656;23.312;2023-06-10T00:24:01;14.97;;;9.50;;
7169;SDS011;3626;42.656;23.312;2023-06-10T00:24:10;14.79;;;9.77;;
7169;SDS011;3626;42.656;23.312;2023-06-10T00:24:17;14.90;;;9.90;;
7169;SDS011;3626;42.656;23.312;2023-06-10T00:24:22;14.82;;;9.82;;
7169;SDS011;3626;42.656;23.312;2023-06-10T00:24:28;14.60;;;9.57;;
7169;SDS011;3626;42.656;23.312;2023-06-10T00:24:34;14.77;;;9.60;;
7169;SDS011;3626;42.656;23.312;2023-06-10T00:24:40;15.05;;;9.50;;
7169;SDS011;3626;42.656;23.312;2023-06-10T00:24:47;15.80;;;9.40;;
7169;SDS011;3626;42.656;23.312;2023-06-10T00:24:52;17.13;;;9.32;;
7169;SDS011;3626;42.656;23.312;2023-06-10T00:24:58;17.30;;;9.40;;
7169;SDS011;3626;42.656;23.312;2023-06-10T00:25:05;17.58;;;9.43;;
7169;SDS011;3626;42.656;23.312;2023-06-10T00:25:12;16.80;;;9.10;;
7169;SDS011;3626;42.656;23.312;2023-06-10T00:25:19;16.63;;;9.00;;
7169;SDS011;3626;42.656;23.312;2023-06-10T00:25:24;16.75;;;9.20;;
7169;SDS011;3626;42.656;23.312;2023-06-10T00:25:31;16.48;;;9.20;;
7169;SDS011;3626;42.656;23.312;2023-06-10T00:25:38;16.20;;;9.10;;
7169;SDS011;3626;42.656;23.312;2023-06-10T00:25:44;15.55;;;9.15;;
7169;SDS011;3626;42.656;23.312;2023-06-10T00:25:49;14.40;;;9.10;;
7169;SDS011;3626;42.656;23.312;2023-06-10T00:25:55;13.40;;;8.88;;
7169;SDS011;3626;42.656;23.312;2023-06-10T00:26:01;13.18;;;8.73;;
7169;SDS011;3626;42.656;23.312;2023-06-10T00:26:07;13.30;;;8.80;;
7169;SDS011;3626;42.656;23.312;2023-06-10T00:26:13;13.13;;;8.70;;
7169;SDS011;3626;42.656;23.312;2023-06-10T00:26:20;12.83;;;8.53;;
7169;SDS011;3626;42.656;23.312;2023-06-10T00:26:26;13.24;;;8.32;;
7169;SDS011;3626;42.656;23.312;2023-06-10T00:26:32;14.43;;;8.40;;
7169;SDS011;3626;42.656;23.312;2023-06-10T00:26:38;14.80;;;8.50;;
7169;SDS011;3626;42.656;23.312;2023-06-10T00:26:44;14.75;;;8.43;;
7169;SDS011;3626;42.656;23.312;2023-06-10T00:26:50;14.73;;;8.43;;
7169;SDS011;3626;42.656;23.312;2023-06-10T00:26:57;15.03;;;8.70;;
7169;SDS011;3626;42.656;23.312;2023-06-10T00:27:03;15.15;;;8.70;;
7169;SDS011;3626;42.656;23.312;2023-06-10T00:27:10;14.93;;;8.87;;
7169;SDS011;3626;42.656;23.312;2023-06-10T00:27:16;15.50;;;9.27;;
7169;SDS011;3626;42.656;23.312;2023-06-10T00:27:22;15.38;;;9.30;;
7169;SDS011;3626;42.656;23.312;2023-06-10T00:27:28;14.43;;;9.37;;
7169;SDS011;3626;42.656;23.312;2023-06-10T00:27:36;13.54;;;9.33;;
7169;SDS011;3626;42.656;23.312;2023-06-10T00:27:42;13.80;;;9.47;;
7169;SDS011;3626;42.656;23.312;2023-06-10T00:27:48;14.60;;;9.77;;
7169;SDS011;3626;42.656;23.312;2023-06-10T00:27:55;14.15;;;9.57;;
7169;SDS011;3626;42.656;23.312;2023-06-10T00:28:01;13.74;;;9.54;;
7169;SDS011;3626;42.656;23.312;2023-06-10T00:28:06;14.00;;;9.50;;
7169;SDS011;3626;42.656;23.312;2023-06-10T00:28:12;13.85;;;9.27;;
7169;SDS011;3626;42.656;23.312;2023-06-10T00:28:18;13.57;;;9.15;;
7169;SDS011;3626;42.656;23.312;2023-06-10T00:28:24;15.50;;;9.18;;
7169;SDS011;3626;42.656;23.312;2023-06-10T00:28:33;15.27;;;8.93;;
7169;SDS011;3626;42.656;23.312;2023-06-10T00:28:39;14.95;;;8.90;;
7169;SDS011;3626;42.656;23.312;2023-06-10T00:28:44;14.88;;;8.82;;
7169;SDS011;3626;42.656;23.312;2023-06-10T00:28:50;14.55;;;8.60;;
7169;SDS011;3626;42.656;23.312;2023-06-10T00:28:57;14.54;;;8.56;;
7169;SDS011;3626;42.656;23.312;2023-06-10T00:29:03;14.30;;;8.50;;
7169;SDS011;3626;42.656;23.312;2023-06-10T00:29:09;13.85;;;8.25;;
7169;SDS011;3626;42.656;23.312;2023-06-10T00:29:15;13.88;;;7.97;;
7169;SDS011;3626;42.656;23.312;2023-06-10T00:29:21;13.07;;;7.90;;
7169;SDS011;3626;42.656;23.312;2023-06-10T00:29:27;12.10;;;8.10;;
7169;SDS011;3626;42.656;23.312;2023-06-10T00:29:33;12.23;;;8.20;;
7169;SDS011;3626;42.656;23.312;2023-06-10T00:29:41;11.97;;;8.20;;
7169;SDS011;3626;42.656;23.312;2023-06-10T00:29:47;12.17;;;8.33;;
7169;SDS011;3626;42.656;23.312;2023-06-10T00:29:53;11.77;;;8.20;;
7169;SDS011;3626;42.656;23.312;2023-06-10T00:29:59;11.88;;;8.15;;
7169;SDS011;3626;42.656;23.312;2023-06-10T00:30:05;12.57;;;8.25;;
7169;SDS011;3626;42.656;23.312;2023-06-10T00:30:12;14.63;;;8.50;;
7169;SDS011;3626;42.656;23.312;2023-06-10T00:30:18;14.47;;;8.57;;
7169;SDS011;3626;42.656;23.312;2023-06-10T00:30:24;14.73;;;8.45;;
7169;SDS011;3626;42.656;23.312;2023-06-10T00:30:30;14.55;;;8.32;;
7169;SDS011;3626;42.656;23.312;2023-06-10T00:30:36;14.73;;;8.20;;
7169;SDS011;3626;42.656;23.312;2023-06-10T00:30:42;15.10;;;8.15;;
7169;SDS011;3626;42.656;23.312;2023-06-10T00:30:47;14.82;;;8.00;;
7169;SDS011;3626;42.656;23.312;2023-06-10T00:30:56;15.23;;;8.10;;
7169;SDS011;3626;42.656;23.312;2023-06-10T00:31:02;14.72;;;8.28;;
7169;SDS011;3626;42.656;23.312;2023-06-10T00:31:09;13.56;;;8.20;;
7169;SDS011;3626;42.656;23.312;2023-06-10T00:31:15;12.65;;;8.10;;
7169;SDS011;3626;42.656;23.312;2023-06-10T00:31:21;12.43;;;8.20;;
7169;SDS011;3626;42.656;23.312;2023-06-10T00:31:27;12.02;;;8.07;;
7169;SDS011;3626;42.656;23.312;2023-06-10T00:31:33;12.48;;;8.20;;
7169;SDS011;3626;42.656;23.312;2023-06-10T00:31:40;11.96;;;8.16;;
7169;SDS011;3626;42.656;23.312;2023-06-10T00:31:45;13.57;;;8.23;;
7169;SDS011;3626;42.656;23.312;2023-06-10T00:31:51;13.90;;;8.35;;
7169;SDS011;3626;42.656;23.312;2023-06-10T00:31:58;13.68;;;8.32;;
7169;SDS011;3626;42.656;23.312;2023-06-10T00:32:04;13.48;;;8.27;;
7169;SDS011;3626;42.656;23.312;2023-06-10T00:32:11;13.40;;;8.30;;
7169;SDS011;3626;42.656;23.312;2023-06-10T00:32:19;13.29;;;8.24;;
7169;SDS011;3626;42.656;23.312;2023-06-10T00:32:25;13.68;;;8.20;;
7169;SDS011;3626;42.656;23.312;2023-06-10T00:32:31;13.60;;;8.20;;
7169;SDS011;3626;42.656;23.312;2023-06-10T00:32:37;13.63;;;8.20;;
7169;SDS011;3626;42.656;23.312;2023-06-10T00:32:43;12.70;;;8.20;;
7169;SDS011;3626;42.656;23.312;2023-06-10T00:32:49;12.52;;;8.13;;
7169;SDS011;3626;42.656;23.312;2023-06-10T00:32:54;12.57;;;8.10;;
7169;SDS011;3626;42.656;23.312;2023-06-10T00:33:00;12.65;;;8.00;;
7169;SDS011;3626;42.656;23.312;2023-06-10T00:33:06;13.38;;;8.10;;
7169;SDS011;3626;42.656;23.312;2023-06-10T00:33:12;14.30;;;8.23;;
7169;SDS011;3626;42.656;23.312;2023-06-10T00:33:21;14.43;;;8.30;;
7169;SDS011;3626;42.656;23.312;2023-06-10T00:33:27;14.01;;;8.33;;
7169;SDS011;3626;42.656;23.312;2023-06-10T00:33:33;14.25;;;8.45;;
7169;SDS011;3626;42.656;23.312;2023-06-10T00:33:40;14.23;;;8.33;;
7169;SDS011;3626;42.656;23.312;2023-06-10T00:33:46;13.73;;;8.27;;
7169;SDS011;3626;42.656;23.312;2023-06-10T00:33:52;13.63;;;8.40;;
7169;SDS011;3626;42.656;23.312;2023-06-10T00:33:58;13.95;;;8.50;;
7169;SDS011;3626;42.656;23.312;2023-06-10T00:34:04;13.63;;;8.38;;
7169;SDS011;3626;42.656;23.312;2023-06-10T00:34:09;12.43;;;8.18;;
7169;SDS011;3626;42.656;23.312;2023-06-10T00:34:16;12.02;;;8.07;;
7169;SDS011;3626;42.656;23.312;2023-06-10T00:34:21;12.73;;;8.20;;
7169;SDS011;3626;42.656;23.312;2023-06-10T00:34:27;13.88;;;8.18;;
7169;SDS011;3626;42.656;23.312;2023-06-10T00:34:33;13.80;;;8.17;;
7169;SDS011;3626;42.656;23.312;2023-06-10T00:34:39;13.82;;;8.20;;
7169;SDS011;3626;42.656;23.312;2023-06-10T00:34:45;14.73;;;8.20;;
7169;SDS011;3626;42.656;23.312;2023-06-10T00:34:50;15.60;;;8.15;;
7169;SDS011;3626;42.656;23.312;2023-06-10T00:34:56;16.77;;;8.20;;
7169;SDS011;3626;42.656;23.312;2023-06-10T00:35:02;17.50;;;8.27;;
7169;SDS011;3626;42.656;23.312;2023-06-10T00:35:09;17.40;;;8.20;;
7169;SDS011;3626;42.656;23.312;2023-06-10T00:35:14;17.45;;;8.30;;
7169;SDS011;3626;42.656;23.312;2023-06-10T00:35:21;17.22;;;8.42;;
7169;SDS011;3626;42.656;23.312;2023-06-10T00:35:27;16.77;;;8.60;;
7169;SDS011;3626;42.656;23.312;2023-06-10T00:35:33;16.95;;;8.50;;
7169;SDS011;3626;42.656;23.312;2023-06-10T00:35:39;16.73;;;8.20;;
7169;SDS011;3626;42.656;23.312;2023-06-10T00:35:45;15.40;;;8.13;;
7169;SDS011;3626;42.656;23.312;2023-06-10T00:35:51;14.93;;;8.18;;
7169;SDS011;3626;42.656;23.312;2023-06-10T00:35:56;13.70;;;8.13;;
7169;SDS011;3626;42.656;23.312;2023-06-10T00:36:02;12.95;;;8.20;;
7169;SDS011;3626;42.656;23.312;2023-06-10T00:36:08;13.47;;;8.47;;
7169;SDS011;3626;42.656;23.312;2023-06-10T00:36:14;13.90;;;8.68;;
7169;SDS011;3626;42.656;23.312;2023-06-10T00:36:20;14.05;;;8.82;;
7169;SDS011;3626;42.656;23.312;2023-06-10T00:36:26;13.45;;;8.60;;
7169;SDS011;3626;42.656;23.312;2023-06-10T00:36:35;12.74;;;8.74;;
7169;SDS011;3626;42.656;23.312;2023-06-10T00:36:41;13.38;;;9.23;;
7169;SDS011;3626;42.656;23.312;2023-06-10T00:36:48;13.50;;;9.50;;
7169;SDS011;3626;42.656;23.312;2023-06-10T00:36:54;13.45;;;9.38;;
7169;SDS011;3626;42.656;23.312;2023-06-10T00:37:00;13.80;;;9.35;;
7169;SDS011;3626;42.656;23.312;2023-06-10T00:37:06;14.70;;;9.43;;
7169;SDS011;3626;42.656;23.312;2023-06-10T00:37:12;14.50;;;9.33;;
7169;SDS011;3626;42.656;23.312;2023-06-10T00:37:18;14.00;;;8.90;;
7169;SDS011;3626;42.656;23.312;2023-06-10T00:37:24;14.15;;;8.98;;
7169;SDS011;3626;42.656;23.312;2023-06-10T00:37:30;14.30;;;8.83;;
7169;SDS011;3626;42.656;23.312;2023-06-10T00:37:37;14.36;;;8.60;;
7169;SDS011;3626;42.656;23.312;2023-06-10T00:37:43;13.68;;;8.30;;
7169;SDS011;3626;42.656;23.312;2023-06-10T00:37:49;14.40;;;8.38;;
7169;SDS011;3626;42.656;23.312;2023-06-10T00:37:54;14.35;;;8.40;;
7169;SDS011;3626;42.656;23.312;2023-06-10T00:38:00;14.07;;;8.33;;
7169;SDS011;3626;42.656;23.312;2023-06-10T00:38:06;13.15;;;8.25;;
7169;SDS011;3626;42.656;23.312;2023-06-10T00:38:12;13.25;;;8.20;;
7169;SDS011;3626;42.656;23.312;2023-06-10T00:38:19;14.06;;;8.26;;
7169;SDS011;3626;42.656;23.312;2023-06-10T00:38:26;14.73;;;8.30;;
7169;SDS011;3626;42.656;23.312;2023-06-10T00:38:31;14.38;;;8.40;;
7169;SDS011;3626;42.656;23.312;2023-06-10T00:38:37;14.60;;;8.57;;
7169;SDS011;3626;42.656;23.312;2023-06-10T00:38:43;14.70;;;8.65;;
7169;SDS011;3626;42.656;23.312;2023-06-10T00:38:49;13.70;;;8.35;;
7169;SDS011;3626;42.656;23.312;2023-06-10T00:38:55;13.25;;;8.25;;